AirNav   Everest Fuels
 
 469 users online  

19KY Conrads Airport
Dry Ridge, Kentucky, USA

GOING TO DRY RIDGE?


FAA INFORMATION EFFECTIVE 13 AUGUST 2020

Location

FAA Identifier: 19KY
Lat/Long: 38-42-23.2420N 084-35-59.7930W
38-42.387367N 084-35.996550W
38.7064561,-84.5999425
(estimated)
Elevation: 940 ft. / 287 m (estimated)
Variation: 03W (1985)
From city: 2 miles N of DRY RIDGE, KY
Time zone: UTC -4 (UTC -5 during Standard Time)
Zip code: 41035

Airport Operations

Airport use: Private use. Permission required prior to landing
Activation date: 08/1988
Control tower: no
ARTCC: INDIANAPOLIS CENTER
FSS: LOUISVILLE FLIGHT SERVICE STATION
Attendance: UNATNDD
Wind indicator: yes
Segmented circle: no

Airport Communications

WX AWOS-3 at K62 (10 nm E): 123.825 (859-654-1345)

Nearby radio navigation aids

VOR radial/distance  VOR name  Freq  Var
FLMr288/14.0FALMOUTH VOR/DME117.0004W
CVGr169/19.2CINCINNATI VORTAC117.3004W
FFTr028/(34.6)FRANKFORT VOR109.4003W

 
NDB name  Hdg/Dist  Freq  Var  ID
SPORTYS223/28.624504WPWF .--. .-- ..-.

Airport Services

Runway Information

Runway 18/36

Dimensions: 2200 x 60 ft. / 671 x 18 m
Surface: turf
RUNWAY 18  RUNWAY 36
Traffic pattern: leftleft

Airport Ownership and Management from official FAA records

Ownership: Privately-owned
Owner: MICHAEL CAUDILL
660 BANNISTER PIKE
DRY RIDGE, KY 41035
Phone 859-428-4868
Manager: MICHAEL CAUDILL
660 BANNISTER PIKE
DRY RIDGE, KY 41035
Phone 859-428-4868

Additional Remarks

TWR 1/2 NM S OF ARPT.
FOR CD CTC CINCINNATI APCH AT 859-372-6440

Instrument Procedures

There are no published instrument procedures at 19KY.

Some nearby airports with instrument procedures:

K62 - Gene Snyder Airport (10 nm E)
KCVG - Cincinnati/Northern Kentucky International Airport (21 nm N)
0I8 - Cynthiana-Harrison County Airport (25 nm SE)
KLUK - Cincinnati Municipal Airport-Lunken Field (25 nm N)
I69 - Clermont County Airport (29 nm NE)
 
Loc | Ops | Rwys | IFR | FBO | Links
Com | Nav | Svcs | Stats | Notes
Area around 19KY (Conrads Airport)
 
Road maps at: MapQuest Bing Google
 
Aerial photo
No photo
 
Sectional chart

 
Airport distance calculator
Flying to Conrads Airport? Find the distance to fly.

From to 19KY

Sunrise and sunset
Times for 14-Aug-2020
 Local
(UTC-4)
 Zulu
(UTC)
Morning civil twilight06:2510:25
Sunrise06:5310:53
Sunset20:3200:32
Evening civil twilight21:0101:01

Current date and time
Zulu (UTC)  14-Aug-2020 08:14:22
Local (UTC-4)  14-Aug-2020 04:14:22
 
METAR
KCVG 
21nm N 
140752Z 07005KT 10SM BKN210 BKN250 23/18 A2997 RMK AO2 SLP138 T02330178
KLUK 
25nm N 
140753Z AUTO 00000KT 10SM CLR 21/19 A2997 RMK AO2 SLP145 T02060194
KI69 
29nm NE 
140755Z AUTO 00000KT 10SM CLR 22/18 A2999 RMK AO2 T02170184
K27K 
29nm S 
140735Z AUTO 00000KT 10SM CLR 21/20 A2999 RMK AO1
KI67 
34nm N 
140755Z AUTO 00000KT 10SM CLR 20/18 A2997 RMK AO1
KFFT 
34nm SW 
140753Z AUTO 04005KT 10SM CLR 25/20 A2995 RMK AO2 SLP133 T02500200
KHAO 
40nm N 
140753Z AUTO 00000KT 10SM CLR 19/18 A2998 RMK AO2 SLP148 T01940183
KLEX 
40nm S 
140754Z 10006KT 10SM CLR 23/21 A2998 RMK AO2 SLP140 T02330211
KIMS 
41nm W 
140755Z AUTO 04005KT 10SM CLR 22/20 A2998 RMK AO1
KFGX 
41nm E 
140755Z AUTO 00000KT 10SM BKN110 22/22 A2998 RMK AO2 T02220220
TAF
KCVG 
21nm N 
140538Z 1406/1512 03006KT P6SM OVC200 FM141800 01007KT P6SM VCSH SCT060 BKN150 FM142200 02007KT P6SM BKN070 FM150000 06004KT P6SM SCT070 BKN100 FM151000 04004KT 5SM BR SCT100
KLUK 
25nm N 
140538Z 1406/1506 VRB02KT P6SM OVC200 FM141800 04005KT P6SM VCSH SCT060 BKN150 FM142200 04005KT P6SM BKN070 FM150000 VRB02KT P6SM SCT070 BKN100
NOTAMs
Click for the latest NOTAMs
NOTAMs are issued by the DoD/FAA and will open in a separate window not controlled by AirNav.

 

 
 

Would you like to see your business listed on this page?

 If your business provides an interesting product or service to pilots, flight crews, aircraft, or users of the Conrads Airport, you should consider listing it here.  To start the listing process, click on the button below
 
Add a business
 

Other Pages about Conrads Airport

Update a link
 
Copyright © AirNav, LLC. All rights reserved. Privacy Policy  Contact